Time;durP1;ratioP1;P1;durP2;ratioP2;P2;SDS_P1;SDS_P2;PMS_P1;PMS_P2;Temp;Humidity;BMP_temperature;BMP_pressure;BME280_temperature;BME280_humidity;BME280_pressure;Samples;Min_cycle;Max_cycle;Signal;HPM_P1;HPM_P2
2023/09/09 00:00:56;;;;;;;4.07;3.05;;;;;;;;;;12759573;23;20025;-87
2023/09/09 00:06:09;;;;;;;4.72;2.30;;;;;;;;;;12758259;23;20037;-89
2023/09/09 00:11:13;;;;;;;3.28;2.70;;;;;;;;;;12786443;23;20065;-88
2023/09/09 00:16:16;;;;;;;3.60;2.40;;;;;;;;;;12757050;23;20047;-88
2023/09/09 00:21:22;;;;;;;3.55;2.60;;;;;;;;;;12782913;23;20048;-88
2023/09/09 00:26:28;;;;;;;3.60;2.92;;;;;;;;;;12782560;23;20032;-88
2023/09/09 00:31:32;;;;;;;3.35;2.58;;;;;;;;;;12758807;23;20476;-90
2023/09/09 00:36:40;;;;;;;3.63;2.67;;;;;;;;;;12757102;23;20021;-88
2023/09/09 00:41:44;;;;;;;4.65;2.42;;;;;;;;;;12734970;23;20068;-79
2023/09/09 00:46:48;;;;;;;3.65;2.53;;;;;;;;;;12739423;23;20037;-79
2023/09/09 00:51:54;;;;;;;5.07;2.50;;;;;;;;;;12703027;23;20405;-78
2023/09/09 00:57:00;;;;;;;4.13;2.80;;;;;;;;;;12729062;23;20026;-79
2023/09/09 01:02:04;;;;;;;;;;;;;;;;;;12738515;23;20077;-79
2023/09/09 01:07:08;;;;;;;4.55;2.78;;;;;;;;;;12738920;23;19944;-79
2023/09/09 01:12:12;;;;;;;3.63;2.60;;;;;;;;;;12707817;23;20029;-79
2023/09/09 01:17:17;;;;;;;3.47;2.75;;;;;;;;;;12706656;23;20029;-79
2023/09/09 01:22:22;;;;;;;3.72;2.60;;;;;;;;;;12746716;23;20052;-80
2023/09/09 01:27:26;;;;;;;5.13;2.75;;;;;;;;;;12751230;23;20080;-79
2023/09/09 01:32:29;;;;;;;3.08;2.70;;;;;;;;;;12740250;23;20018;-79
2023/09/09 01:37:35;;;;;;;3.88;2.78;;;;;;;;;;12725587;23;20520;-79
2023/09/09 01:42:40;;;;;;;2.50;2.10;;;;;;;;;;12643896;23;20029;-79
2023/09/09 01:47:44;;;;;;;3.72;2.70;;;;;;;;;;12646301;23;20032;-79
2023/09/09 01:52:49;;;;;;;4.80;2.50;;;;;;;;;;12646234;23;20036;-79
2023/09/09 01:57:53;;;;;;;4.68;2.78;;;;;;;;;;12676613;23;20026;-78
2023/09/09 02:02:56;;;;;;;3.13;2.60;;;;;;;;;;12645468;23;20106;-78
2023/09/09 02:08:01;;;;;;;2.90;2.60;;;;;;;;;;12676069;23;20116;-79
2023/09/09 02:13:05;;;;;;;3.55;2.50;;;;;;;;;;12669758;23;20028;-79
2023/09/09 02:18:08;;;;;;;2.85;2.22;;;;;;;;;;12644905;23;20481;-79
2023/09/09 02:23:13;;;;;;;3.70;2.40;;;;;;;;;;12668855;23;20461;-79
2023/09/09 02:28:18;;;;;;;3.13;2.55;;;;;;;;;;12645029;23;20065;-80
2023/09/09 02:33:21;;;;;;;3.03;2.42;;;;;;;;;;12644799;23;20026;-79
2023/09/09 02:38:26;;;;;;;3.60;2.55;;;;;;;;;;12674246;23;20026;-79
2023/09/09 02:43:30;;;;;;;2.65;2.30;;;;;;;;;;12645675;23;20068;-79
2023/09/09 02:48:33;;;;;;;3.75;2.50;;;;;;;;;;12647830;23;20382;-79
2023/09/09 02:53:38;;;;;;;2.80;2.40;;;;;;;;;;12646275;23;20022;-79
2023/09/09 02:58:42;;;;;;;2.97;2.35;;;;;;;;;;12673284;23;20092;-79
2023/09/09 03:03:46;;;;;;;2.67;2.25;;;;;;;;;;12671916;23;20014;-79
2023/09/09 03:08:53;;;;;;;2.72;2.38;;;;;;;;;;12644741;23;20034;-79
2023/09/09 03:13:57;;;;;;;3.13;2.45;;;;;;;;;;12645339;23;20022;-79
2023/09/09 03:19:01;;;;;;;2.65;2.05;;;;;;;;;;12644027;23;20030;-79
2023/09/09 03:24:06;;;;;;;2.40;2.20;;;;;;;;;;12670550;23;20390;-79
2023/09/09 03:29:10;;;;;;;2.63;2.28;;;;;;;;;;12666770;23;20059;-79
2023/09/09 03:34:14;;;;;;;4.35;2.72;;;;;;;;;;12698877;23;20014;-81
2023/09/09 03:39:18;;;;;;;3.72;2.55;;;;;;;;;;12657453;23;20028;-80
2023/09/09 03:44:22;;;;;;;3.15;2.63;;;;;;;;;;12650402;23;20017;-79
2023/09/09 03:49:26;;;;;;;3.65;2.60;;;;;;;;;;12669003;23;20809;-79
2023/09/09 03:54:31;;;;;;;2.58;2.38;;;;;;;;;;12690037;23;20025;-79
2023/09/09 03:59:35;;;;;;;2.13;1.90;;;;;;;;;;12643947;23;20480;-79
2023/09/09 04:04:38;;;;;;;2.65;2.30;;;;;;;;;;12644664;23;20018;-79
2023/09/09 04:09:44;;;;;;;3.63;2.38;;;;;;;;;;12687425;23;20717;-78
2023/09/09 04:14:48;;;;;;;3.67;2.67;;;;;;;;;;12644416;23;20022;-78
2023/09/09 04:19:51;;;;;;;3.28;2.40;;;;;;;;;;12643190;23;20024;-80
2023/09/09 04:24:56;;;;;;;4.47;2.55;;;;;;;;;;12644342;23;20041;-79
2023/09/09 04:30:00;;;;;;;3.30;2.50;;;;;;;;;;12644812;23;20025;-80
2023/09/09 04:35:04;;;;;;;2.80;2.20;;;;;;;;;;12644498;23;20082;-80
2023/09/09 04:40:10;;;;;;;2.70;2.40;;;;;;;;;;12644240;23;20472;-79
2023/09/09 04:45:13;;;;;;;;;;;;;;;;;;12643678;23;20045;-79
2023/09/09 04:50:17;;;;;;;3.03;2.58;;;;;;;;;;12668155;23;19924;-79
2023/09/09 04:55:22;;;;;;;3.40;2.33;;;;;;;;;;12667277;23;20109;-79
2023/09/09 05:00:25;;;;;;;3.08;2.65;;;;;;;;;;12667906;23;20424;-80
2023/09/09 05:05:29;;;;;;;2.75;2.28;;;;;;;;;;12685300;23;20054;-79
2023/09/09 05:10:34;;;;;;;2.90;2.40;;;;;;;;;;12668632;23;20030;-79
2023/09/09 05:15:38;;;;;;;3.13;2.30;;;;;;;;;;12668045;23;20081;-79
2023/09/09 05:20:41;;;;;;;2.75;2.17;;;;;;;;;;12683757;23;20046;-79
2023/09/09 05:25:47;;;;;;;2.53;2.08;;;;;;;;;;12666706;23;20030;-79
2023/09/09 05:30:50;;;;;;;3.20;2.50;;;;;;;;;;12684054;23;20245;-80
2023/09/09 05:35:54;;;;;;;3.00;2.38;;;;;;;;;;12672643;23;20030;-80
2023/09/09 05:40:59;;;;;;;2.67;2.22;;;;;;;;;;12694302;23;20026;-80
2023/09/09 05:46:03;;;;;;;3.80;2.42;;;;;;;;;;12711241;23;20058;-80
2023/09/09 05:51:07;;;;;;;2.83;2.25;;;;;;;;;;12658991;23;20085;-80
2023/09/09 05:56:11;;;;;;;2.20;2.00;;;;;;;;;;12646688;23;20081;-79
2023/09/09 06:01:15;;;;;;;2.63;2.40;;;;;;;;;;12646616;23;20034;-80
2023/09/09 06:06:19;;;;;;;2.72;2.15;;;;;;;;;;12684293;23;20026;-79
2023/09/09 06:11:23;;;;;;;3.33;2.40;;;;;;;;;;12684149;23;20037;-79
2023/09/09 06:16:27;;;;;;;2.55;2.08;;;;;;;;;;12671670;23;20026;-79
2023/09/09 06:21:30;;;;;;;3.83;2.13;;;;;;;;;;12646952;23;20049;-80
2023/09/09 06:26:36;;;;;;;3.17;2.05;;;;;;;;;;12646673;23;20026;-79
2023/09/09 06:31:40;;;;;;;2.13;1.90;;;;;;;;;;12646686;23;20453;-79
2023/09/09 06:36:43;;;;;;;2.10;1.90;;;;;;;;;;12646229;23;20041;-80
2023/09/09 06:41:48;;;;;;;2.20;2.00;;;;;;;;;;12723653;23;20025;-89
2023/09/09 06:46:52;;;;;;;2.58;1.83;;;;;;;;;;12702614;23;20025;-89
2023/09/09 06:51:55;;;;;;;2.65;1.80;;;;;;;;;;12727055;23;20461;-90
2023/09/09 06:57:00;;;;;;;1.98;1.77;;;;;;;;;;12727317;23;20029;-89
2023/09/09 07:02:06;;;;;;;3.00;2.17;;;;;;;;;;12728572;23;20031;-91
2023/09/09 07:07:09;;;;;;;2.63;2.13;;;;;;;;;;12701748;23;20033;-90
2023/09/09 07:12:16;;;;;;;2.72;2.00;;;;;;;;;;12701682;23;20032;-90
2023/09/09 07:17:20;;;;;;;2.22;2.00;;;;;;;;;;12727348;23;20044;-89
2023/09/09 07:22:23;;;;;;;2.33;2.05;;;;;;;;;;12700863;23;20021;-90
2023/09/09 07:27:28;;;;;;;3.10;2.55;;;;;;;;;;12701350;23;20069;-91
2023/09/09 07:32:32;;;;;;;2.72;2.45;;;;;;;;;;12699767;23;20104;-89
2023/09/09 07:37:36;;;;;;;4.57;3.63;;;;;;;;;;12725769;23;20026;-90
2023/09/09 07:42:41;;;;;;;2.75;2.22;;;;;;;;;;12724057;23;20060;-89
2023/09/09 07:47:45;;;;;;;2.50;1.80;;;;;;;;;;12723751;23;20025;-90
2023/09/09 07:52:50;;;;;;;3.00;2.17;;;;;;;;;;12724431;23;20021;-91
2023/09/09 07:57:55;;;;;;;2.47;2.13;;;;;;;;;;12723697;23;20080;-91
2023/09/09 08:03:00;;;;;;;3.55;2.20;;;;;;;;;;12699320;23;20492;-91
2023/09/09 08:08:06;;;;;;;3.17;2.88;;;;;;;;;;12724559;23;20021;-90
2023/09/09 08:13:11;;;;;;;3.45;2.88;;;;;;;;;;12699233;23;20027;-90
2023/09/09 08:18:15;;;;;;;4.68;3.67;;;;;;;;;;12723953;23;20045;-90
2023/09/09 08:23:19;;;;;;;4.82;2.88;;;;;;;;;;12723465;23;20030;-90
2023/09/09 08:28:24;;;;;;;3.88;3.47;;;;;;;;;;12698853;23;20469;-89
2023/09/09 08:33:28;;;;;;;4.63;3.80;;;;;;;;;;12725277;23;20105;-90
2023/09/09 08:38:32;;;;;;;5.63;3.70;;;;;;;;;;12724634;23;20036;-92
2023/09/09 08:43:46;;;;;;;6.13;3.58;;;;;;;;;;12697300;23;20388;-90
2023/09/09 08:48:52;;;;;;;3.00;2.60;;;;;;;;;;12724306;23;20025;-90
2023/09/09 08:53:58;;;;;;;5.50;2.90;;;;;;;;;;12724468;23;20032;-90
2023/09/09 08:59:03;;;;;;;3.57;2.77;;;;;;;;;;12697758;23;20022;-90
2023/09/09 09:04:07;;;;;;;3.00;2.50;;;;;;;;;;12698663;23;20653;-90
2023/09/09 09:09:12;;;;;;;2.90;2.60;;;;;;;;;;12696986;23;20030;-90
2023/09/09 09:14:17;;;;;;;2.70;2.50;;;;;;;;;;12721861;23;20026;-89
2023/09/09 09:19:29;;;;;;;3.27;2.10;;;;;;;;;;12724971;23;20024;-89
2023/09/09 09:24:42;;;;;;;5.45;2.55;;;;;;;;;;12726673;23;20024;-90
2023/09/09 09:29:47;;;;;;;2.40;2.20;;;;;;;;;;12726015;23;20025;-90
2023/09/09 09:34:51;;;;;;;;;;;;;;;;;;12704388;23;20028;-91
2023/09/09 09:39:55;;;;;;;3.40;2.58;;;;;;;;;;12728177;23;20408;-90
2023/09/09 09:45:11;;;;;;;2.85;2.25;;;;;;;;;;12731068;23;20022;-90
2023/09/09 09:50:19;;;;;;;2.22;1.90;;;;;;;;;;12724869;23;20026;-90
2023/09/09 09:55:23;;;;;;;3.30;1.90;;;;;;;;;;12725126;23;20473;-89
2023/09/09 10:00:29;;;;;;;4.78;2.22;;;;;;;;;;12727315;23;20536;-89
2023/09/09 10:05:35;;;;;;;4.15;1.90;;;;;;;;;;12729085;23;20032;-89
2023/09/09 10:10:41;;;;;;;2.13;1.90;;;;;;;;;;12742741;23;20052;-90
2023/09/09 10:15:46;;;;;;;4.75;3.10;;;;;;;;;;12727200;23;20026;-89
2023/09/09 10:20:52;;;;;;;2.75;2.45;;;;;;;;;;12725990;23;20022;-92
2023/09/09 10:25:57;;;;;;;2.63;2.42;;;;;;;;;;12727813;23;20029;-92
2023/09/09 10:31:02;;;;;;;2.50;2.10;;;;;;;;;;12726586;23;20515;-89
2023/09/09 10:36:07;;;;;;;2.72;2.28;;;;;;;;;;12725299;23;20026;-89
2023/09/09 10:41:12;;;;;;;3.07;2.10;;;;;;;;;;12700516;23;20029;-89
2023/09/09 10:46:16;;;;;;;5.88;3.00;;;;;;;;;;12700270;23;20021;-89
2023/09/09 10:51:20;;;;;;;4.53;3.55;;;;;;;;;;12725410;23;20040;-89
2023/09/09 10:56:24;;;;;;;2.97;2.40;;;;;;;;;;12699545;23;20463;-88
2023/09/09 11:01:29;;;;;;;4.93;3.35;;;;;;;;;;12699439;23;20487;-89
2023/09/09 11:06:32;;;;;;;5.47;3.13;;;;;;;;;;12725966;23;20714;-88
2023/09/09 11:11:38;;;;;;;4.25;2.95;;;;;;;;;;12700332;23;20025;-88
2023/09/09 11:16:46;;;;;;;3.40;2.60;;;;;;;;;;12723661;23;20025;-89
2023/09/09 11:21:50;;;;;;;2.20;2.00;;;;;;;;;;12723895;23;20025;-89
2023/09/09 11:26:56;;;;;;;2.47;2.25;;;;;;;;;;12723003;23;20017;-90
2023/09/09 11:32:02;;;;;;;2.75;2.10;;;;;;;;;;12725385;23;20081;-89
2023/09/09 11:37:06;;;;;;;2.42;2.17;;;;;;;;;;12722597;23;20591;-88
2023/09/09 11:42:10;;;;;;;5.13;2.92;;;;;;;;;;12699590;23;20365;-88
2023/09/09 11:47:16;;;;;;;4.07;3.35;;;;;;;;;;12722487;23;20026;-89
2023/09/09 11:52:21;;;;;;;4.80;3.10;;;;;;;;;;12698534;23;20089;-88
2023/09/09 11:57:24;;;;;;;2.30;2.10;;;;;;;;;;12697365;23;20062;-88
2023/09/09 12:02:29;;;;;;;3.13;2.72;;;;;;;;;;12731928;23;20073;-91
2023/09/09 12:07:35;;;;;;;4.00;3.35;;;;;;;;;;12697021;23;20200;-89
2023/09/09 12:12:38;;;;;;;3.45;3.15;;;;;;;;;;12697212;23;20032;-88
2023/09/09 12:17:43;;;;;;;2.53;2.33;;;;;;;;;;12721091;23;20029;-88
2023/09/09 12:22:48;;;;;;;2.60;2.40;;;;;;;;;;12719899;23;20036;-86
2023/09/09 12:27:51;;;;;;;4.55;2.10;;;;;;;;;;12690463;23;20033;-89
2023/09/09 12:32:56;;;;;;;4.65;3.38;;;;;;;;;;12697330;23;20081;-88
2023/09/09 12:37:59;;;;;;;;;;;;;;;;;;12737218;23;20021;-78
2023/09/09 12:43:10;;;;;;;5.07;3.60;;;;;;;;;;12791259;23;19916;-77
2023/09/09 12:48:15;;;;;;;5.80;4.10;;;;;;;;;;12794731;23;20021;-77
2023/09/09 12:53:18;;;;;;;;;;;;;;;;;;12795042;23;20381;-77
2023/09/09 12:58:22;;;;;;;5.55;2.97;;;;;;;;;;12794119;23;19923;-77
2023/09/09 13:03:27;;;;;;;3.90;2.55;;;;;;;;;;12797419;23;20028;-78
2023/09/09 13:08:31;;;;;;;4.15;2.58;;;;;;;;;;12779934;23;20023;-78
2023/09/09 13:13:34;;;;;;;2.58;2.38;;;;;;;;;;12771022;23;20029;-77
2023/09/09 13:18:39;;;;;;;3.55;2.15;;;;;;;;;;12769493;23;20464;-77
2023/09/09 13:23:42;;;;;;;2.60;1.90;;;;;;;;;;12768491;23;20108;-77
2023/09/09 13:28:46;;;;;;;1.70;1.60;;;;;;;;;;12794602;23;20025;-77
2023/09/09 13:33:51;;;;;;;2.17;1.90;;;;;;;;;;12795497;23;20025;-77
2023/09/09 13:38:54;;;;;;;2.42;2.00;;;;;;;;;;12794591;23;20025;-77
2023/09/09 13:43:57;;;;;;;2.38;1.77;;;;;;;;;;12794162;23;20037;-77
2023/09/09 13:49:02;;;;;;;2.22;1.90;;;;;;;;;;12767468;23;20017;-77
2023/09/09 13:54:06;;;;;;;2.58;2.10;;;;;;;;;;12793652;23;20029;-77
2023/09/09 13:59:10;;;;;;;1.92;1.77;;;;;;;;;;12793344;23;20025;-78
2023/09/09 14:04:15;;;;;;;4.53;1.57;;;;;;;;;;12791907;23;20450;-77
2023/09/09 14:09:18;;;;;;;3.88;2.22;;;;;;;;;;12812661;23;20040;-77
2023/09/09 14:14:22;;;;;;;7.78;2.83;;;;;;;;;;12812011;23;20024;-77
2023/09/09 14:19:27;;;;;;;6.60;2.30;;;;;;;;;;12812079;23;20017;-77
2023/09/09 14:24:31;;;;;;;5.13;2.08;;;;;;;;;;12811803;23;20045;-77
2023/09/09 14:29:34;;;;;;;4.72;1.42;;;;;;;;;;12792528;23;20440;-77
2023/09/09 14:34:39;;;;;;;6.22;2.40;;;;;;;;;;12792764;23;20112;-77
2023/09/09 14:39:42;;;;;;;4.68;1.70;;;;;;;;;;12792048;23;20041;-77
2023/09/09 14:44:46;;;;;;;6.38;1.85;;;;;;;;;;12810499;23;20464;-77
2023/09/09 14:49:51;;;;;;;3.05;1.52;;;;;;;;;;12809698;23;20596;-77
2023/09/09 14:54:54;;;;;;;3.45;1.60;;;;;;;;;;12792035;23;20044;-77
2023/09/09 14:59:57;;;;;;;3.10;1.85;;;;;;;;;;12765503;23;20478;-78
2023/09/09 15:05:02;;;;;;;4.28;1.70;;;;;;;;;;12809075;23;20025;-78
2023/09/09 15:10:07;;;;;;;3.10;1.48;;;;;;;;;;12791774;23;20044;-77
2023/09/09 15:15:10;;;;;;;6.30;1.73;;;;;;;;;;12807997;23;20096;-77
2023/09/09 15:20:15;;;;;;;3.80;1.57;;;;;;;;;;12771511;23;20075;-78
2023/09/09 15:25:19;;;;;;;4.13;1.33;;;;;;;;;;12810963;23;20048;-77
2023/09/09 15:30:22;;;;;;;3.97;1.80;;;;;;;;;;12791518;23;20041;-77
2023/09/09 15:35:28;;;;;;;2.40;1.83;;;;;;;;;;12790480;23;20041;-77
2023/09/09 15:40:31;;;;;;;4.70;1.92;;;;;;;;;;12790787;23;20087;-77
2023/09/09 15:45:35;;;;;;;4.93;1.77;;;;;;;;;;12791275;23;20108;-77
2023/09/09 15:50:42;;;;;;;4.60;1.83;;;;;;;;;;12805309;23;20024;-77
2023/09/09 15:55:45;;;;;;;5.45;1.40;;;;;;;;;;12805033;23;20032;-76
2023/09/09 16:00:48;;;;;;;4.85;3.22;;;;;;;;;;12804072;23;20100;-77
2023/09/09 16:05:53;;;;;;;7.13;4.45;;;;;;;;;;12804063;23;20041;-76
2023/09/09 16:10:58;;;;;;;23.75;18.77;;;;;;;;;;12790680;23;20033;-77
2023/09/09 16:16:03;;;;;;;41.10;30.38;;;;;;;;;;12791106;23;20056;-77
2023/09/09 16:21:08;;;;;;;21.13;15.70;;;;;;;;;;12790884;23;20036;-76
2023/09/09 16:26:11;;;;;;;12.68;6.90;;;;;;;;;;12802676;23;20040;-76
2023/09/09 16:31:14;;;;;;;5.40;3.97;;;;;;;;;;12790900;23;20031;-77
2023/09/09 16:36:19;;;;;;;4.47;2.55;;;;;;;;;;12801905;23;20024;-76
2023/09/09 16:41:22;;;;;;;;;;;;;;;;;;12790779;23;20423;-77
2023/09/09 16:46:26;;;;;;;2.80;1.75;;;;;;;;;;12764276;23;20330;-77
2023/09/09 16:51:31;;;;;;;6.32;2.20;;;;;;;;;;12790551;23;20464;-77
2023/09/09 16:56:35;;;;;;;5.28;2.35;;;;;;;;;;12763408;23;20104;-77
2023/09/09 17:01:38;;;;;;;2.75;1.60;;;;;;;;;;12790556;23;20103;-77
2023/09/09 17:06:43;;;;;;;6.75;2.28;;;;;;;;;;12799660;23;20021;-77
2023/09/09 17:11:47;;;;;;;6.15;1.75;;;;;;;;;;12799680;23;20045;-77
2023/09/09 17:16:50;;;;;;;3.95;1.77;;;;;;;;;;12789943;23;20056;-77
2023/09/09 17:21:55;;;;;;;4.93;2.13;;;;;;;;;;12799048;23;20389;-76
2023/09/09 17:26:58;;;;;;;3.97;2.17;;;;;;;;;;12798663;23;20680;-77
2023/09/09 17:32:03;;;;;;;4.90;1.95;;;;;;;;;;12798337;23;20081;-77
2023/09/09 17:37:08;;;;;;;5.25;2.20;;;;;;;;;;12800384;23;20704;-79
2023/09/09 17:42:11;;;;;;;4.40;2.70;;;;;;;;;;12799290;23;20128;-77
2023/09/09 17:47:15;;;;;;;3.55;2.17;;;;;;;;;;12789676;23;20028;-77
2023/09/09 17:52:19;;;;;;;6.18;2.58;;;;;;;;;;12800969;23;20076;-77
2023/09/09 17:57:23;;;;;;;5.30;2.50;;;;;;;;;;12793516;23;20024;-77
2023/09/09 18:02:26;;;;;;;3.95;2.00;;;;;;;;;;12766878;23;20044;-77
2023/09/09 18:07:31;;;;;;;5.00;2.53;;;;;;;;;;12799906;23;20083;-77
2023/09/09 18:12:36;;;;;;;4.00;2.40;;;;;;;;;;12793581;23;20025;-77
2023/09/09 18:17:39;;;;;;;;;;;;;;;;;;12792032;23;20025;-76
2023/09/09 18:22:44;;;;;;;9.13;3.10;;;;;;;;;;12766556;23;19924;-77
2023/09/09 18:27:48;;;;;;;5.97;2.07;;;;;;;;;;12798420;23;20044;-77
2023/09/09 18:32:51;;;;;;;5.22;2.75;;;;;;;;;;12791482;23;20048;-76
2023/09/09 18:37:56;;;;;;;11.90;2.60;;;;;;;;;;12778709;23;20361;-79
2023/09/09 18:42:59;;;;;;;6.13;2.60;;;;;;;;;;12706359;23;20035;-79
2023/09/09 18:48:03;;;;;;;5.10;2.70;;;;;;;;;;12736759;23;20084;-79
2023/09/09 18:53:08;;;;;;;4.82;2.58;;;;;;;;;;12706491;23;20076;-79
2023/09/09 18:58:13;;;;;;;5.17;2.80;;;;;;;;;;12736233;23;20057;-79
2023/09/09 19:03:16;;;;;;;5.35;3.33;;;;;;;;;;12735587;23;20025;-79
2023/09/09 19:08:23;;;;;;;6.22;3.40;;;;;;;;;;12735510;23;20057;-78
2023/09/09 19:13:26;;;;;;;7.13;3.72;;;;;;;;;;12731480;23;20393;-79
2023/09/09 19:18:30;;;;;;;6.63;3.63;;;;;;;;;;12706263;23;20048;-79
2023/09/09 19:23:34;;;;;;;5.28;3.55;;;;;;;;;;12715703;23;20029;-79
2023/09/09 19:28:38;;;;;;;6.97;3.78;;;;;;;;;;12733418;23;20053;-79
2023/09/09 19:33:41;;;;;;;7.63;3.40;;;;;;;;;;12732953;23;20022;-79
2023/09/09 19:38:46;;;;;;;5.78;3.05;;;;;;;;;;12729417;23;20025;-79
2023/09/09 19:43:50;;;;;;;7.40;3.43;;;;;;;;;;12732234;23;20030;-79
2023/09/09 19:48:54;;;;;;;6.80;3.17;;;;;;;;;;12731556;23;20025;-79
2023/09/09 19:53:59;;;;;;;6.60;3.10;;;;;;;;;;12741208;23;20021;-79
2023/09/09 19:59:03;;;;;;;8.87;3.13;;;;;;;;;;12742367;23;20033;-80
2023/09/09 20:04:06;;;;;;;6.43;2.95;;;;;;;;;;12731672;23;20025;-79
2023/09/09 20:09:11;;;;;;;7.47;2.90;;;;;;;;;;12668224;23;20025;-79
2023/09/09 20:14:14;;;;;;;5.53;3.33;;;;;;;;;;12691305;23;20073;-79
2023/09/09 20:19:18;;;;;;;6.50;3.10;;;;;;;;;;12729448;23;20036;-79
2023/09/09 20:24:23;;;;;;;8.43;3.60;;;;;;;;;;12690358;23;20018;-79
2023/09/09 20:29:26;;;;;;;5.93;3.05;;;;;;;;;;12670352;23;20026;-79
2023/09/09 20:34:30;;;;;;;6.25;2.65;;;;;;;;;;12687970;23;20017;-79
2023/09/09 20:39:35;;;;;;;9.18;3.28;;;;;;;;;;12668715;23;20021;-79
2023/09/09 20:44:38;;;;;;;7.60;2.70;;;;;;;;;;12668586;23;20081;-79
2023/09/09 20:49:42;;;;;;;7.32;3.00;;;;;;;;;;12668140;23;20326;-79
2023/09/09 20:54:46;;;;;;;8.88;3.40;;;;;;;;;;12687692;23;20579;-79
2023/09/09 20:59:50;;;;;;;8.95;3.28;;;;;;;;;;12686313;23;20488;-79
2023/09/09 21:04:53;;;;;;;7.43;3.30;;;;;;;;;;12668490;23;20022;-79
2023/09/09 21:09:58;;;;;;;9.00;3.40;;;;;;;;;;12668831;23;20014;-79
2023/09/09 21:15:03;;;;;;;6.63;2.70;;;;;;;;;;12687987;23;20026;-79
2023/09/09 21:20:08;;;;;;;12.88;3.65;;;;;;;;;;12687934;23;20036;-79
2023/09/09 21:25:13;;;;;;;7.22;2.72;;;;;;;;;;12672947;23;20033;-79
2023/09/09 21:30:17;;;;;;;7.27;3.23;;;;;;;;;;12689139;23;20046;-79
2023/09/09 21:35:20;;;;;;;6.53;3.17;;;;;;;;;;12688481;23;20029;-79
2023/09/09 21:40:25;;;;;;;11.23;3.13;;;;;;;;;;12671501;23;20026;-79
2023/09/09 21:45:28;;;;;;;5.50;3.10;;;;;;;;;;12673814;23;20533;-79
2023/09/09 21:50:32;;;;;;;13.70;3.50;;;;;;;;;;12671584;23;20036;-79
2023/09/09 21:55:37;;;;;;;8.60;3.05;;;;;;;;;;12671900;23;20026;-79
2023/09/09 22:00:40;;;;;;;6.43;2.53;;;;;;;;;;12687181;23;20022;-80
2023/09/09 22:05:44;;;;;;;5.80;2.70;;;;;;;;;;12698966;23;20032;-79
2023/09/09 22:10:48;;;;;;;7.55;2.78;;;;;;;;;;12679084;23;20029;-80
2023/09/09 22:15:52;;;;;;;8.48;3.13;;;;;;;;;;12688577;23;20097;-79
2023/09/09 22:20:55;;;;;;;6.13;2.67;;;;;;;;;;12673889;23;20032;-79
2023/09/09 22:26:05;;;;;;;8.50;2.78;;;;;;;;;;12672388;23;20538;-80
2023/09/09 22:31:08;;;;;;;7.57;2.72;;;;;;;;;;12673951;23;20030;-80
2023/09/09 22:36:12;;;;;;;5.20;2.53;;;;;;;;;;12683962;23;20033;-79
2023/09/09 22:41:17;;;;;;;6.53;2.88;;;;;;;;;;12646508;23;20022;-79
2023/09/09 22:46:20;;;;;;;5.43;2.28;;;;;;;;;;12672188;23;20109;-79
2023/09/09 22:51:24;;;;;;;5.97;2.53;;;;;;;;;;12683063;23;20465;-79
2023/09/09 22:56:29;;;;;;;4.90;2.25;;;;;;;;;;12682744;23;20026;-79
2023/09/09 23:01:32;;;;;;;5.38;2.80;;;;;;;;;;12670651;23;20100;-79
2023/09/09 23:06:36;;;;;;;6.57;2.58;;;;;;;;;;12670338;23;20030;-79
2023/09/09 23:11:41;;;;;;;5.47;2.72;;;;;;;;;;12682083;23;20386;-79
2023/09/09 23:16:44;;;;;;;10.52;3.20;;;;;;;;;;12670335;23;20466;-79
2023/09/09 23:21:48;;;;;;;5.35;2.40;;;;;;;;;;12671002;23;20025;-79
2023/09/09 23:26:53;;;;;;;7.40;2.35;;;;;;;;;;12671731;23;20032;-80
2023/09/09 23:31:58;;;;;;;4.38;2.50;;;;;;;;;;12671463;23;20022;-79
2023/09/09 23:37:01;;;;;;;6.43;2.03;;;;;;;;;;12671105;23;20500;-79
2023/09/09 23:42:07;;;;;;;5.30;2.60;;;;;;;;;;12671363;23;20025;-79
2023/09/09 23:47:10;;;;;;;8.75;2.38;;;;;;;;;;12678717;23;20340;-79
2023/09/09 23:52:14;;;;;;;5.70;2.40;;;;;;;;;;12679141;23;20028;-79
2023/09/09 23:57:19;;;;;;;5.43;2.60;;;;;;;;;;12659587;23;20108;-79
